Mato Leitao, Brazil
Current Conditions -  °F | °C
As of 11:20 PM on Sunday 21 Dec 2014 (Local Time) from SBPA Reporting Station
Light Rain Light Rain  
Wind Chill: 72°   Ceiling: 500
Heat Index: 72°   Visibility: 1.8mi
Dew Point: 72°   Wind: 8mph
Humidity: 100%   Direction: 270°W
Pressure: 29.71"   Gusts: NA
Location:  29.52°S, 52.13°W
Report Text: SBPA 220120Z 27007KT 3000 -RA BR BKN005 OVC035 22/22 Q1006
Loading
Personal Weather Stations






























Interactive Weather Map New forecast layout! Learn more

10-Day Weather Forecast

Advertisements
Track Severe Weather on mobile